createdAt,value
2022-10-21T00:01:55.073Z,100407.50
2022-10-21T00:04:21.333Z,100409.00
2022-10-21T00:06:47.594Z,100401.59
2022-10-21T00:09:14.020Z,100404.09
2022-10-21T00:11:40.319Z,100408.41
2022-10-21T00:14:06.589Z,100415.25
2022-10-21T00:16:32.839Z,100422.16
2022-10-21T00:18:59.133Z,100415.56
2022-10-21T00:21:25.392Z,100415.38
2022-10-21T00:23:51.671Z,100406.78
2022-10-21T00:26:17.927Z,100409.16
2022-10-21T00:28:44.190Z,100416.88
2022-10-21T00:31:10.433Z,100407.22
2022-10-21T00:33:36.683Z,100396.66
2022-10-21T00:36:03.042Z,100390.03
2022-10-21T00:38:29.295Z,100384.75
2022-10-21T00:40:55.575Z,100389.28
2022-10-21T00:43:21.862Z,100390.03
2022-10-21T00:45:48.124Z,100378.19
2022-10-21T00:48:14.446Z,100359.50
2022-10-21T00:50:42.595Z,100360.25
2022-10-21T00:53:09.110Z,100363.81
2022-10-21T00:55:35.356Z,100369.81
2022-10-21T00:58:01.643Z,100378.84
2022-10-21T01:00:27.900Z,100363.91
2022-10-21T01:02:54.156Z,100359.91
2022-10-21T01:05:20.403Z,100350.25
2022-10-21T01:07:47.139Z,100353.50
2022-10-21T01:10:13.608Z,100326.09
2022-10-21T01:12:39.862Z,100304.09
2022-10-21T01:15:06.111Z,100298.94
2022-10-21T01:17:44.191Z,100310.41
2022-10-21T01:20:11.480Z,100299.06
2022-10-21T01:22:37.746Z,100292.59
2022-10-21T01:25:03.994Z,100295.72
2022-10-21T01:27:30.304Z,100293.38
2022-10-21T01:29:56.855Z,100289.91
2022-10-21T01:32:23.109Z,100285.63
2022-10-21T01:34:49.408Z,100284.22
2022-10-21T01:37:15.660Z,100282.84
2022-10-21T01:39:41.918Z,100277.38
2022-10-21T01:44:41.317Z,100259.88
2022-10-21T01:47:07.557Z,100259.28
2022-10-21T01:49:33.881Z,100262.03
2022-10-21T01:52:00.151Z,100256.75
2022-10-21T01:54:26.414Z,100229.25
2022-10-21T01:56:52.667Z,100223.16
2022-10-21T01:59:18.923Z,100227.31
2022-10-21T02:01:45.232Z,100223.56
2022-10-21T02:04:11.477Z,100225.06
2022-10-21T02:06:37.732Z,100234.53
2022-10-21T02:09:04.124Z,100230.66
2022-10-21T02:11:30.443Z,100236.13
2022-10-21T02:13:56.699Z,100225.63
2022-10-21T02:16:22.981Z,100231.75
2022-10-21T02:18:49.235Z,100226.38
2022-10-21T02:21:15.529Z,100216.53
2022-10-21T02:23:41.771Z,100208.03
2022-10-21T02:26:08.039Z,100216.31
2022-10-21T02:28:34.342Z,100210.19
2022-10-21T02:31:02.270Z,100205.94
2022-10-21T02:33:28.519Z,100212.75
2022-10-21T02:35:54.786Z,100212.91
2022-10-21T02:38:21.021Z,100223.66
2022-10-21T02:40:47.303Z,100232.63
2022-10-21T02:43:13.543Z,100231.47
2022-10-21T02:45:39.790Z,100220.66
2022-10-21T02:48:06.084Z,100220.03
2022-10-21T02:50:32.347Z,100217.25
2022-10-21T02:52:58.605Z,100213.41
2022-10-21T02:55:24.912Z,100219.38
2022-10-21T02:57:51.170Z,100226.56
2022-10-21T03:00:17.429Z,100239.66
2022-10-21T03:02:43.719Z,100242.53
2022-10-21T03:05:10.354Z,100230.38
2022-10-21T03:07:36.852Z,100221.31
2022-10-21T03:10:03.434Z,100227.41
2022-10-21T03:12:29.698Z,100221.94
2022-10-21T03:14:55.942Z,100203.50
2022-10-21T03:17:25.121Z,100207.44
2022-10-21T03:19:51.767Z,100210.34
2022-10-21T03:22:18.027Z,100203.69
2022-10-21T03:24:44.325Z,100203.25
2022-10-21T03:27:10.568Z,100202.41
2022-10-21T03:29:36.828Z,100207.56
2022-10-21T03:32:03.087Z,100220.13
2022-10-21T03:34:29.384Z,100221.06
2022-10-21T03:36:55.672Z,100206.91
2022-10-21T03:39:21.934Z,100192.75
2022-10-21T03:41:48.195Z,100183.72
2022-10-21T03:44:14.569Z,100186.50
2022-10-21T03:46:40.820Z,100179.47
2022-10-21T03:49:11.293Z,100184.44
2022-10-21T03:51:41.972Z,100189.16
2022-10-21T03:54:08.224Z,100186.59
2022-10-21T03:56:34.474Z,100186.81
2022-10-21T03:59:00.730Z,100191.63
2022-10-21T04:01:27.089Z,100201.59
2022-10-21T04:03:53.390Z,100189.16
2022-10-21T04:06:19.781Z,100172.44
2022-10-21T04:08:46.085Z,100179.72
2022-10-21T04:11:12.377Z,100161.28
2022-10-21T04:13:38.630Z,100166.78
2022-10-21T04:16:04.889Z,100172.25
2022-10-21T04:18:31.325Z,100178.56
2022-10-21T04:20:57.575Z,100174.16
2022-10-21T04:23:24.189Z,100169.66
2022-10-21T04:25:50.435Z,100184.91
2022-10-21T04:28:16.683Z,100177.09
2022-10-21T04:30:43.060Z,100153.91
2022-10-21T04:33:09.325Z,100140.91
2022-10-21T04:35:35.599Z,100144.16
2022-10-21T04:38:01.835Z,100142.41
2022-10-21T04:40:28.084Z,100131.19
2022-10-21T04:42:54.336Z,100134.84
2022-10-21T04:45:20.578Z,100147.44
2022-10-21T04:47:46.832Z,100140.19
2022-10-21T04:50:13.216Z,100138.56
2022-10-21T04:52:39.722Z,100143.28
2022-10-21T04:55:06.088Z,100150.38
2022-10-21T04:57:32.345Z,100135.34
2022-10-21T04:59:58.586Z,100131.41
2022-10-21T05:02:25.643Z,100122.69
2022-10-21T05:04:52.076Z,100122.47
2022-10-21T05:07:18.342Z,100118.28
2022-10-21T05:09:44.599Z,100124.53
2022-10-21T05:12:10.999Z,100122.72
2022-10-21T05:14:37.465Z,100118.53
2022-10-21T05:17:03.760Z,100118.63
2022-10-21T05:19:31.376Z,100116.06
2022-10-21T05:21:57.990Z,100116.59
2022-10-21T05:24:24.243Z,100118.94
2022-10-21T05:26:51.446Z,100106.63
2022-10-21T05:29:17.636Z,100100.00
2022-10-21T05:31:43.934Z,100090.56
2022-10-21T05:34:10.211Z,100087.16
2022-10-21T05:36:36.473Z,100093.88
2022-10-21T05:39:02.888Z,100087.88
2022-10-21T05:41:29.129Z,100091.44
2022-10-21T05:43:55.421Z,100078.88
2022-10-21T05:46:21.686Z,100085.66
2022-10-21T05:51:25.353Z,100079.63
2022-10-21T05:53:51.604Z,100090.34
2022-10-21T05:56:17.886Z,100096.34
2022-10-21T05:58:44.136Z,100092.28
2022-10-21T06:01:10.751Z,100105.97
2022-10-21T06:03:37.057Z,100085.59
2022-10-21T06:06:03.480Z,100088.59
2022-10-21T06:08:29.786Z,100098.16
2022-10-21T06:10:56.104Z,100085.28
2022-10-21T06:13:22.360Z,100092.47
2022-10-21T06:15:51.038Z,100083.00
2022-10-21T06:18:17.446Z,100081.75
2022-10-21T06:20:43.706Z,100084.75
2022-10-21T06:23:12.214Z,100091.38
2022-10-21T06:25:38.496Z,100099.31
2022-10-21T06:28:04.745Z,100091.78
2022-10-21T06:30:31.092Z,100087.50
2022-10-21T06:32:57.350Z,100089.59
2022-10-21T06:35:23.616Z,100091.97
2022-10-21T06:37:49.873Z,100099.38
2022-10-21T06:40:16.162Z,100108.97
2022-10-21T06:42:42.424Z,100083.63
2022-10-21T06:45:08.879Z,100100.09
2022-10-21T06:47:35.139Z,100099.03
2022-10-21T06:50:03.441Z,100099.66
2022-10-21T06:52:30.032Z,100099.81
2022-10-21T06:54:56.293Z,100118.16
2022-10-21T06:57:22.581Z,100119.16
2022-10-21T06:59:48.912Z,100118.34
2022-10-21T07:02:15.172Z,100117.28
2022-10-21T07:04:44.891Z,100111.03
2022-10-21T07:07:11.175Z,100110.72
2022-10-21T07:09:37.675Z,100110.03
2022-10-21T07:12:04.515Z,100121.47
2022-10-21T07:14:30.925Z,100120.47
2022-10-21T07:16:57.167Z,100121.09
2022-10-21T07:19:23.416Z,100113.28
2022-10-21T07:21:49.679Z,100112.34
2022-10-21T07:24:18.737Z,100108.31
2022-10-21T07:26:46.887Z,100107.88
2022-10-21T07:29:13.163Z,100098.06
2022-10-21T07:31:39.459Z,100090.59
2022-10-21T07:34:05.746Z,100093.44
2022-10-21T07:36:32.037Z,100097.47
2022-10-21T07:38:58.286Z,100105.66
2022-10-21T07:41:24.542Z,100108.06
2022-10-21T07:43:50.821Z,100092.31
2022-10-21T07:46:17.088Z,100095.13
2022-10-21T07:48:43.382Z,100081.25
2022-10-21T07:51:09.661Z,100091.75
2022-10-21T07:53:35.980Z,100083.28
2022-10-21T07:56:02.232Z,100089.72
2022-10-21T07:58:28.482Z,100094.94
2022-10-21T08:00:54.776Z,100091.78
2022-10-21T08:03:21.052Z,100087.97
2022-10-21T08:05:51.118Z,100077.84
2022-10-21T08:08:17.435Z,100078.34
2022-10-21T08:10:43.778Z,100081.16
2022-10-21T08:13:10.184Z,100071.88
2022-10-21T08:15:36.452Z,100080.09
2022-10-21T08:18:02.725Z,100086.69
2022-10-21T08:20:28.998Z,100076.28
2022-10-21T08:22:55.258Z,100077.16
2022-10-21T08:25:21.506Z,100069.34
2022-10-21T08:27:47.859Z,100062.50
2022-10-21T08:30:15.484Z,100063.22
2022-10-21T08:32:41.797Z,100071.41
2022-10-21T08:35:08.067Z,100072.38
2022-10-21T08:37:34.319Z,100064.78
2022-10-21T08:40:00.619Z,100060.63
2022-10-21T08:42:26.891Z,100057.94
2022-10-21T08:44:53.145Z,100054.63
2022-10-21T08:47:19.434Z,100049.25
2022-10-21T08:49:45.700Z,100047.75
2022-10-21T08:52:11.952Z,100047.78
2022-10-21T08:54:38.218Z,100047.47
2022-10-21T08:57:04.466Z,100052.00
2022-10-21T08:59:30.882Z,100050.59
2022-10-21T09:01:57.136Z,100036.38
2022-10-21T09:04:23.400Z,100030.75
2022-10-21T09:06:49.642Z,100029.50
2022-10-21T09:09:15.964Z,100022.78
2022-10-21T09:11:42.296Z,100031.97
2022-10-21T09:14:08.547Z,100028.34
2022-10-21T09:16:34.953Z,100026.03
2022-10-21T09:19:01.203Z,100031.91
2022-10-21T09:21:27.447Z,100019.81
2022-10-21T09:23:53.775Z,100011.06
2022-10-21T09:26:20.080Z,100021.31
2022-10-21T09:28:46.340Z,100011.81
2022-10-21T09:31:12.600Z,100007.13
2022-10-21T09:33:38.919Z,100016.00
2022-10-21T09:36:05.183Z,100008.13
2022-10-21T09:38:31.483Z,99999.91
2022-10-21T09:41:03.038Z,100002.81
2022-10-21T09:43:29.307Z,100009.25
2022-10-21T09:45:55.547Z,99991.50
2022-10-21T09:48:21.803Z,99992.22
2022-10-21T09:50:48.047Z,99995.44
2022-10-21T09:53:14.298Z,99998.31
2022-10-21T09:55:40.616Z,100000.28
2022-10-21T09:58:06.881Z,100007.66
2022-10-21T10:00:33.149Z,99999.72
2022-10-21T10:02:59.452Z,100009.81
2022-10-21T10:05:25.706Z,100011.56
2022-10-21T10:07:52.109Z,100009.25
2022-10-21T10:10:18.369Z,100008.03
2022-10-21T10:12:44.621Z,100000.63
2022-10-21T10:15:10.877Z,99996.06
2022-10-21T10:17:38.566Z,100003.00
2022-10-21T10:20:05.173Z,100002.72
2022-10-21T10:22:31.655Z,99992.81
2022-10-21T10:24:57.916Z,99990.56
2022-10-21T10:27:26.494Z,99977.00
2022-10-21T10:29:53.429Z,99978.78
2022-10-21T10:32:19.671Z,99975.53
2022-10-21T10:34:45.927Z,99977.09
2022-10-21T10:37:12.220Z,99992.13
2022-10-21T10:39:38.475Z,99982.91
2022-10-21T10:42:04.731Z,99993.59
2022-10-21T10:44:30.986Z,99978.16
2022-10-21T10:46:57.288Z,99982.81
2022-10-21T10:49:23.628Z,99986.00
2022-10-21T10:51:49.931Z,99982.59
2022-10-21T10:54:17.346Z,99980.34
2022-10-21T10:56:43.606Z,99972.75
2022-10-21T10:59:09.850Z,99968.63
2022-10-21T11:01:36.144Z,99967.06
2022-10-21T11:04:02.602Z,99973.63
2022-10-21T11:06:28.889Z,99968.66
2022-10-21T11:08:55.195Z,99971.06
2022-10-21T11:11:21.674Z,99968.06
2022-10-21T11:13:47.977Z,99967.50
2022-10-21T11:16:14.260Z,99974.59
2022-10-21T11:18:40.511Z,99972.88
2022-10-21T11:21:07.481Z,99975.75
2022-10-21T11:23:33.725Z,99961.25
2022-10-21T11:25:59.987Z,99969.78
2022-10-21T11:28:26.255Z,99953.75
2022-10-21T11:30:52.503Z,99944.34
2022-10-21T11:33:18.760Z,99949.34
2022-10-21T11:35:45.038Z,99956.16
2022-10-21T11:38:11.312Z,99946.75
2022-10-21T11:40:37.598Z,99943.34
2022-10-21T11:43:03.872Z,99929.72
2022-10-21T11:45:30.190Z,99929.56
2022-10-21T11:47:56.441Z,99934.97
2022-10-21T11:50:22.693Z,99935.81
2022-10-21T11:52:48.975Z,99933.13
2022-10-21T11:55:15.835Z,99932.00
2022-10-21T11:57:42.157Z,99934.25
2022-10-21T12:00:08.469Z,99930.00
2022-10-21T12:02:34.797Z,99935.09
2022-10-21T12:05:01.080Z,99929.16
2022-10-21T12:07:27.420Z,99933.28
2022-10-21T12:09:53.682Z,99934.66
2022-10-21T12:12:19.939Z,99937.94
2022-10-21T12:14:46.214Z,99952.28
2022-10-21T12:17:12.467Z,99952.59
2022-10-21T12:19:38.732Z,99969.50
2022-10-21T12:22:05.010Z,99957.84
2022-10-21T12:24:32.045Z,99969.78
2022-10-21T12:26:58.232Z,99969.22
2022-10-21T12:29:24.501Z,99963.56
2022-10-21T12:31:50.760Z,99958.56
2022-10-21T12:34:17.045Z,99965.78
2022-10-21T12:36:43.310Z,99976.59
2022-10-21T12:39:09.639Z,99966.38
2022-10-21T12:41:36.108Z,99964.25
2022-10-21T12:44:02.730Z,99952.59
2022-10-21T12:46:28.982Z,99961.69
2022-10-21T12:48:55.260Z,99968.78
2022-10-21T12:51:46.843Z,99970.75
2022-10-21T12:54:13.270Z,99972.53
2022-10-21T12:56:39.569Z,99975.66
2022-10-21T12:59:09.955Z,99985.19
2022-10-21T13:01:36.270Z,99966.94
2022-10-21T13:04:02.567Z,99965.59
2022-10-21T13:06:28.859Z,99975.03
2022-10-21T13:08:55.545Z,99980.97
2022-10-21T13:11:22.874Z,99981.56
2022-10-21T13:13:49.939Z,99989.56
2022-10-21T13:16:20.049Z,99982.75
2022-10-21T13:18:46.313Z,99989.38
2022-10-21T13:21:12.592Z,99998.31
2022-10-21T13:23:38.869Z,99989.00
2022-10-21T13:26:05.198Z,99990.19
2022-10-21T13:28:31.494Z,99991.75
2022-10-21T13:30:57.830Z,99988.41
2022-10-21T13:33:24.079Z,99981.97
2022-10-21T13:35:50.408Z,99972.53
2022-10-21T13:38:16.667Z,99983.09
2022-10-21T13:40:42.937Z,99983.66
2022-10-21T13:43:09.216Z,99992.09
2022-10-21T13:45:35.501Z,99997.69
2022-10-21T13:48:01.787Z,99972.69
2022-10-21T13:50:28.405Z,99976.44
2022-10-21T13:52:54.684Z,99990.97
2022-10-21T13:55:20.994Z,99993.47
2022-10-21T13:57:47.265Z,99990.88
2022-10-21T14:00:13.533Z,99984.28
2022-10-21T14:02:39.805Z,99985.75
2022-10-21T14:05:06.052Z,99993.97
2022-10-21T14:07:32.336Z,99988.78
2022-10-21T14:09:58.952Z,99992.91
2022-10-21T14:12:25.226Z,99993.50
2022-10-21T14:14:51.624Z,99983.25
2022-10-21T14:17:17.883Z,99975.53
2022-10-21T14:19:44.147Z,99980.84
2022-10-21T14:22:10.623Z,99972.66
2022-10-21T14:24:37.030Z,99968.75
2022-10-21T14:29:53.608Z,99954.69
2022-10-21T14:32:22.923Z,99960.44
2022-10-21T14:34:49.177Z,99959.81
2022-10-21T14:37:15.443Z,99951.41
2022-10-21T14:39:41.695Z,99961.69
2022-10-21T14:42:08.128Z,99976.47
2022-10-21T14:44:34.458Z,99981.31
2022-10-21T14:47:00.754Z,99981.09
2022-10-21T14:49:27.053Z,99980.84
2022-10-21T14:51:53.299Z,99977.88
2022-10-21T14:54:19.544Z,99978.78
2022-10-21T14:56:46.732Z,99985.63
2022-10-21T14:59:12.919Z,99986.69
2022-10-21T15:01:39.181Z,99991.41
2022-10-21T15:04:05.429Z,99979.53
2022-10-21T15:06:32.635Z,100001.41
2022-10-21T15:08:58.972Z,100003.38
2022-10-21T15:11:25.452Z,100019.22
2022-10-21T15:13:51.712Z,100020.44
2022-10-21T15:16:17.954Z,100013.38
2022-10-21T15:18:45.436Z,100017.53
2022-10-21T15:21:11.691Z,100024.00
2022-10-21T15:23:37.965Z,100021.66
2022-10-21T15:26:05.850Z,100019.84
2022-10-21T15:28:32.143Z,100000.69
2022-10-21T15:30:59.540Z,99992.47
2022-10-21T15:33:26.495Z,99989.44
2022-10-21T15:35:52.983Z,99982.81
2022-10-21T15:38:19.230Z,99973.06
2022-10-21T15:40:45.487Z,99970.38
2022-10-21T15:43:11.759Z,99979.19
2022-10-21T15:45:41.881Z,99963.78
2022-10-21T15:48:08.150Z,99954.53
2022-10-21T15:50:36.527Z,99968.44
2022-10-21T15:53:02.785Z,99961.97
2022-10-21T15:55:29.078Z,99957.22
2022-10-21T15:57:55.345Z,99958.97
2022-10-21T16:00:21.693Z,99952.78
2022-10-21T16:02:48.000Z,99966.66
2022-10-21T16:05:14.283Z,99959.97
2022-10-21T16:07:40.951Z,99963.75
2022-10-21T16:10:07.208Z,99969.25
2022-10-21T16:12:33.554Z,99960.81
2022-10-21T16:14:59.802Z,99973.75
2022-10-21T16:17:28.538Z,99973.75
2022-10-21T16:19:54.910Z,99997.94
2022-10-21T16:22:21.216Z,100008.78
2022-10-21T16:24:47.490Z,100013.94
2022-10-21T16:27:13.802Z,100008.69
2022-10-21T16:29:40.076Z,100013.22
2022-10-21T16:32:06.408Z,100013.31
2022-10-21T16:34:32.665Z,99999.03
2022-10-21T16:36:58.967Z,100003.03
2022-10-21T16:39:25.516Z,99986.31
2022-10-21T16:41:52.150Z,99984.47
2022-10-21T16:44:18.418Z,99988.03
2022-10-21T16:46:44.668Z,99985.56
2022-10-21T16:49:12.179Z,99991.16
2022-10-21T16:51:39.448Z,99998.91
2022-10-21T16:54:05.770Z,99990.09
2022-10-21T16:56:32.028Z,100000.97
2022-10-21T16:58:58.300Z,100004.13
2022-10-21T17:01:24.677Z,99999.88
2022-10-21T17:03:51.024Z,100005.31
2022-10-21T17:06:17.303Z,99994.75
2022-10-21T17:08:43.640Z,100004.75
2022-10-21T17:11:09.949Z,99998.91
2022-10-21T17:13:36.193Z,99986.19
2022-10-21T17:16:05.955Z,99981.19
2022-10-21T17:18:32.213Z,99982.91
2022-10-21T17:20:58.488Z,99981.44
2022-10-21T17:23:24.744Z,99983.72
2022-10-21T17:25:51.005Z,99976.16
2022-10-21T17:28:17.250Z,99986.44
2022-10-21T17:30:43.512Z,99989.59
2022-10-21T17:33:13.318Z,99981.31
2022-10-21T17:35:40.535Z,99993.88
2022-10-21T17:38:06.808Z,99995.59
2022-10-21T17:40:33.068Z,99991.53
2022-10-21T17:42:59.404Z,99990.47
2022-10-21T17:45:25.653Z,99991.31
2022-10-21T17:47:51.923Z,99998.19
2022-10-21T17:50:24.037Z,99999.97
2022-10-21T17:55:40.710Z,100002.44
2022-10-21T17:58:06.966Z,100006.31
2022-10-21T18:00:33.236Z,100002.06
2022-10-21T18:02:59.487Z,99987.66
2022-10-21T18:05:25.784Z,99995.84
2022-10-21T18:07:52.091Z,99998.53
2022-10-21T18:10:18.358Z,99985.09
2022-10-21T18:12:44.600Z,99985.09
2022-10-21T18:15:10.856Z,99977.41
2022-10-21T18:17:39.866Z,99983.66
2022-10-21T18:20:06.957Z,99984.97
2022-10-21T18:22:33.224Z,99978.28
2022-10-21T18:24:59.486Z,99982.28
2022-10-21T18:27:25.735Z,99981.81
2022-10-21T18:29:51.981Z,99980.63
2022-10-21T18:32:18.367Z,99964.72
2022-10-21T18:34:44.611Z,99957.41
2022-10-21T18:37:10.865Z,99953.13
2022-10-21T18:39:37.148Z,99962.53
2022-10-21T18:42:03.395Z,99956.19
2022-10-21T18:44:30.319Z,99960.94
2022-10-21T18:46:56.575Z,99967.16
2022-10-21T18:49:22.903Z,99966.06
2022-10-21T18:51:49.163Z,99961.78
2022-10-21T18:54:15.669Z,99953.47
2022-10-21T18:56:41.975Z,99947.38
2022-10-21T18:59:09.834Z,99941.88
2022-10-21T19:01:39.854Z,99937.47
2022-10-21T19:04:06.263Z,99943.34
2022-10-21T19:06:32.540Z,99936.78
2022-10-21T19:09:00.877Z,99931.41
2022-10-21T19:11:27.238Z,99929.22
2022-10-21T19:13:53.493Z,99934.31
2022-10-21T19:16:19.806Z,99934.09
2022-10-21T19:18:46.067Z,99943.47
2022-10-21T19:21:12.947Z,99932.47
2022-10-21T19:23:39.209Z,99951.28
2022-10-21T19:26:05.508Z,99944.22
2022-10-21T19:28:31.771Z,99951.28
2022-10-21T19:30:58.031Z,99957.66
2022-10-21T19:33:24.314Z,99946.53
2022-10-21T19:35:50.573Z,99948.13
2022-10-21T19:38:26.190Z,99948.84
2022-10-21T19:40:58.828Z,99946.28
2022-10-21T19:43:25.120Z,99952.53
2022-10-21T19:45:53.009Z,99948.84
2022-10-21T19:48:19.296Z,99958.38
2022-10-21T19:50:45.616Z,99960.59
2022-10-21T19:53:11.867Z,99952.38
2022-10-21T19:55:38.149Z,99959.84
2022-10-21T19:58:04.398Z,99972.03
2022-10-21T20:00:30.650Z,99967.41
2022-10-21T20:02:56.907Z,99965.22
2022-10-21T20:05:23.179Z,99951.66
2022-10-21T20:07:49.427Z,99949.72
2022-10-21T20:10:15.706Z,99959.84
2022-10-21T20:12:42.256Z,99964.59
2022-10-21T20:15:08.696Z,99972.03
2022-10-21T20:17:35.083Z,99977.78
2022-10-21T20:20:01.355Z,99972.66
2022-10-21T20:22:27.645Z,99972.31
2022-10-21T20:24:53.890Z,99973.75
2022-10-21T20:27:23.737Z,99976.72
2022-10-21T20:29:49.992Z,99971.94
2022-10-21T20:32:16.278Z,99970.72
2022-10-21T20:34:43.410Z,99965.22
2022-10-21T20:37:09.609Z,99971.09
2022-10-21T20:39:35.866Z,99976.94
2022-10-21T20:42:02.210Z,99976.50
2022-10-21T20:44:28.481Z,99979.25
2022-10-21T20:46:54.735Z,99972.59
2022-10-21T20:49:20.974Z,99976.25
2022-10-21T20:51:47.275Z,99965.50
2022-10-21T20:54:13.532Z,99958.88
2022-10-21T20:56:39.800Z,99962.94
2022-10-21T20:59:06.035Z,99965.97
2022-10-21T21:01:32.411Z,99976.34
2022-10-21T21:03:58.745Z,99979.41
2022-10-21T21:06:25.014Z,99976.00
2022-10-21T21:09:08.557Z,99978.44
2022-10-21T21:11:37.506Z,99977.72
2022-10-21T21:14:03.776Z,99974.19
2022-10-21T21:16:30.043Z,99968.91
2022-10-21T21:18:56.314Z,99977.72
2022-10-21T21:21:22.563Z,99972.34
2022-10-21T21:23:49.004Z,99980.50
2022-10-21T21:26:15.273Z,99979.06
2022-10-21T21:28:41.568Z,99981.09
2022-10-21T21:31:07.826Z,99963.28
2022-10-21T21:33:34.089Z,99970.34
2022-10-21T21:36:00.353Z,99983.56
2022-10-21T21:38:26.623Z,99975.72
2022-10-21T21:40:53.261Z,99981.03
2022-10-21T21:43:19.543Z,99980.47
2022-10-21T21:45:45.854Z,99983.78
2022-10-21T21:48:12.209Z,99987.56
2022-10-21T21:50:38.503Z,99991.09
2022-10-21T21:53:04.751Z,99988.66
2022-10-21T21:55:31.005Z,99994.41
2022-10-21T21:57:57.267Z,100001.47
2022-10-21T22:00:23.540Z,100008.22
2022-10-21T22:02:49.803Z,100004.22
2022-10-21T22:05:16.155Z,99995.78
2022-10-21T22:07:42.697Z,99991.94
2022-10-21T22:10:09.155Z,99987.47
2022-10-21T22:12:35.407Z,99990.00
2022-10-21T22:15:01.868Z,99975.09
2022-10-21T22:17:28.385Z,99967.66
2022-10-21T22:19:54.650Z,99961.56
2022-10-21T22:22:20.918Z,99963.06
2022-10-21T22:24:47.169Z,99969.50
2022-10-21T22:27:13.436Z,99971.97
2022-10-21T22:29:39.686Z,99976.50
2022-10-21T22:32:05.984Z,99983.44
2022-10-21T22:34:32.245Z,99994.09
2022-10-21T22:36:58.494Z,99994.44
2022-10-21T22:39:25.605Z,99983.56
2022-10-21T22:41:51.801Z,99969.75
2022-10-21T22:44:18.104Z,99979.78
2022-10-21T22:46:44.367Z,99972.97
2022-10-21T22:49:10.648Z,99970.13
2022-10-21T22:51:36.905Z,99959.38
2022-10-21T22:54:03.498Z,99961.09
2022-10-21T22:56:29.971Z,99960.13
2022-10-21T22:58:57.435Z,99947.91
2022-10-21T23:01:26.556Z,99945.22
2022-10-21T23:03:52.808Z,99939.84
2022-10-21T23:06:19.147Z,99948.03
2022-10-21T23:08:45.433Z,99943.03
2022-10-21T23:11:11.730Z,99946.56
2022-10-21T23:13:38.011Z,99948.03
2022-10-21T23:16:04.303Z,99938.97
2022-10-21T23:18:30.574Z,99937.28
2022-10-21T23:20:56.830Z,99927.38
2022-10-21T23:23:23.099Z,99933.50
2022-10-21T23:25:49.369Z,99930.06
2022-10-21T23:28:15.670Z,99926.38
2022-10-21T23:30:43.202Z,99914.22
2022-10-21T23:33:09.511Z,99899.03
2022-10-21T23:35:35.772Z,99909.78
2022-10-21T23:38:02.086Z,99911.63
2022-10-21T23:40:28.334Z,99926.38
2022-10-21T23:42:54.603Z,99937.16
2022-10-21T23:45:20.846Z,99947.03
2022-10-21T23:47:47.101Z,99954.72
2022-10-21T23:50:13.368Z,99954.47
2022-10-21T23:52:39.665Z,99963.91
2022-10-21T23:55:05.924Z,99968.16
2022-10-21T23:57:32.182Z,99972.44
2022-10-21T23:59:58.430Z,99984.78
